createdAt,value
2022-08-05T00:01:20.925Z,25.50
2022-08-05T00:04:15.100Z,25.10
2022-08-05T00:07:27.003Z,24.80
2022-08-05T00:10:11.389Z,25.00
2022-08-05T00:12:58.711Z,24.70
2022-08-05T00:15:56.383Z,24.50
2022-08-05T00:18:49.194Z,24.60
2022-08-05T00:21:37.606Z,24.40
2022-08-05T00:24:31.101Z,24.00
2022-08-05T00:27:18.421Z,24.00
2022-08-05T00:30:11.569Z,23.80
2022-08-05T00:33:00.982Z,23.70
2022-08-05T00:36:14.905Z,23.60
2022-08-05T00:38:55.412Z,23.50
2022-08-05T00:41:55.628Z,23.40
2022-08-05T00:44:43.190Z,23.30
2022-08-05T00:47:31.678Z,23.30
2022-08-05T00:50:41.879Z,23.20
2022-08-05T00:54:00.109Z,23.30
2022-08-05T00:56:36.376Z,23.30
2022-08-05T00:59:25.198Z,23.10
2022-08-05T01:02:12.717Z,23.00
2022-08-05T01:05:05.178Z,22.90
2022-08-05T01:08:40.218Z,22.90
2022-08-05T01:11:13.507Z,23.00
2022-08-05T01:14:09.721Z,22.80
2022-08-05T01:17:04.671Z,22.80
2022-08-05T01:20:01.915Z,22.80
2022-08-05T01:23:15.374Z,23.00
2022-08-05T01:26:34.982Z,23.10
2022-08-05T01:29:32.549Z,22.60
2022-08-05T01:32:24.376Z,22.70
2022-08-05T01:35:50.657Z,22.60
2022-08-05T01:38:29.874Z,22.80
2022-08-05T01:41:22.214Z,22.60
2022-08-05T01:44:11.530Z,22.50
2022-08-05T01:47:01.531Z,22.60
2022-08-05T01:50:01.277Z,22.40
2022-08-05T01:52:51.315Z,22.20
2022-08-05T01:55:41.318Z,22.20
2022-08-05T01:58:40.863Z,22.50
2022-08-05T02:01:40.106Z,22.20
2022-08-05T02:04:31.861Z,22.20
2022-08-05T02:07:21.873Z,22.30
2022-08-05T02:10:11.133Z,22.30
2022-08-05T02:13:15.776Z,22.40
2022-08-05T02:16:07.759Z,22.60
2022-08-05T02:19:09.659Z,22.70
2022-08-05T02:22:04.564Z,22.70
2022-08-05T02:24:57.193Z,22.60
2022-08-05T02:27:58.950Z,22.60
2022-08-05T02:30:54.673Z,22.60
2022-08-05T02:33:57.304Z,22.70
2022-08-05T02:36:50.139Z,22.70
2022-08-05T02:39:41.330Z,22.60
2022-08-05T02:42:36.364Z,22.70
2022-08-05T02:45:26.322Z,22.70
2022-08-05T02:48:16.839Z,22.70
2022-08-05T02:51:05.490Z,22.70
2022-08-05T02:53:54.814Z,22.70
2022-08-05T02:56:46.052Z,22.70
2022-08-05T02:59:50.407Z,22.50
2022-08-05T03:02:41.176Z,22.50
2022-08-05T03:06:55.219Z,22.50
2022-08-05T03:08:38.333Z,22.60
2022-08-05T03:11:55.141Z,22.70
2022-08-05T03:14:45.722Z,22.70
2022-08-05T03:17:33.468Z,22.70
2022-08-05T03:20:29.037Z,22.80
2022-08-05T03:23:16.743Z,22.80
2022-08-05T03:26:32.473Z,22.80
2022-08-05T03:29:12.422Z,22.80
2022-08-05T03:32:06.878Z,22.80
2022-08-05T03:34:55.787Z,22.90
2022-08-05T03:37:46.601Z,22.90
2022-08-05T03:40:34.122Z,23.00
2022-08-05T03:44:08.815Z,22.90
2022-08-05T03:46:32.589Z,22.80
2022-08-05T03:49:21.295Z,22.80
2022-08-05T03:52:48.882Z,22.90
2022-08-05T03:56:05.426Z,22.90
2022-08-05T03:58:46.791Z,22.80
2022-08-05T04:01:39.050Z,22.90
2022-08-05T04:04:29.701Z,22.90
2022-08-05T04:07:16.930Z,22.80
2022-08-05T04:10:12.750Z,22.90
2022-08-05T04:13:05.174Z,22.90
2022-08-05T04:15:52.869Z,22.80
2022-08-05T04:18:54.465Z,22.90
2022-08-05T04:22:09.390Z,23.00
2022-08-05T04:24:52.584Z,23.10
2022-08-05T04:27:43.595Z,23.30
2022-08-05T04:30:31.082Z,23.40
2022-08-05T04:33:20.582Z,23.30
2022-08-05T04:36:49.915Z,23.30
2022-08-05T04:39:35.327Z,23.40
2022-08-05T04:42:25.495Z,23.40
2022-08-05T04:45:14.216Z,23.40
2022-08-05T04:48:18.561Z,23.50
2022-08-05T04:51:15.044Z,23.50
2022-08-05T04:54:02.507Z,23.60
2022-08-05T04:56:50.809Z,23.60
2022-08-05T04:59:40.979Z,23.70
2022-08-05T05:02:36.230Z,23.80
2022-08-05T05:05:28.879Z,23.80
2022-08-05T05:08:26.577Z,23.90
2022-08-05T05:11:17.730Z,24.00
2022-08-05T05:14:06.461Z,24.00
2022-08-05T05:16:55.726Z,24.20
2022-08-05T05:19:47.539Z,24.20
2022-08-05T05:22:34.992Z,24.20
2022-08-05T05:25:40.264Z,24.20
2022-08-05T05:28:27.701Z,24.20
2022-08-05T05:31:18.563Z,24.20
2022-08-05T05:34:05.913Z,24.20
2022-08-05T05:36:53.822Z,24.20
2022-08-05T05:39:41.325Z,24.20
2022-08-05T05:42:30.489Z,24.20
2022-08-05T05:45:18.980Z,24.10
2022-08-05T05:48:09.030Z,24.10
2022-08-05T05:50:56.763Z,24.20
2022-08-05T05:53:46.104Z,24.30
2022-08-05T05:56:45.548Z,24.30
2022-08-05T05:59:40.111Z,24.30
2022-08-05T06:02:37.503Z,24.30
2022-08-05T06:05:26.713Z,24.20
2022-08-05T06:08:14.097Z,24.20
2022-08-05T06:11:19.103Z,24.20
2022-08-05T06:14:07.014Z,24.30
2022-08-05T06:16:54.363Z,24.40
2022-08-05T06:19:44.249Z,24.50
2022-08-05T06:22:45.054Z,24.70
2022-08-05T06:26:12.836Z,24.70
2022-08-05T06:28:41.044Z,24.50
2022-08-05T06:31:30.518Z,24.50
2022-08-05T06:34:19.972Z,24.30
2022-08-05T06:37:08.355Z,24.10
2022-08-05T06:39:57.214Z,24.30
2022-08-05T06:42:44.598Z,24.70
2022-08-05T06:45:44.548Z,25.30
2022-08-05T06:48:56.757Z,25.10
2022-08-05T06:51:46.486Z,24.90
2022-08-05T06:54:33.418Z,24.80
2022-08-05T06:58:02.651Z,24.70
2022-08-05T07:00:33.718Z,24.70
2022-08-05T07:03:22.291Z,24.60
2022-08-05T07:06:20.672Z,24.60
2022-08-05T07:09:08.164Z,24.70
2022-08-05T07:11:56.364Z,24.90
2022-08-05T07:15:06.774Z,25.00
2022-08-05T07:18:09.131Z,25.10
2022-08-05T07:20:58.391Z,25.30
2022-08-05T07:23:52.422Z,25.50
2022-08-05T07:26:39.639Z,25.80
2022-08-05T07:30:27.212Z,25.80
2022-08-05T07:32:38.239Z,25.50
2022-08-05T07:36:04.849Z,25.20
2022-08-05T07:38:34.951Z,25.30
2022-08-05T07:42:14.569Z,25.30
2022-08-05T07:44:38.000Z,25.30
2022-08-05T07:47:27.011Z,25.10
2022-08-05T07:50:32.554Z,24.90
2022-08-05T07:53:20.505Z,24.90
2022-08-05T07:57:02.421Z,25.00
2022-08-05T07:59:15.280Z,25.00
2022-08-05T08:02:03.031Z,24.80
2022-08-05T08:04:50.531Z,24.80
2022-08-05T08:08:00.167Z,24.80
2022-08-05T08:10:50.822Z,24.60
2022-08-05T08:13:42.691Z,24.50
2022-08-05T08:16:50.171Z,24.50
2022-08-05T08:20:21.750Z,24.50
2022-08-05T08:22:53.383Z,24.50
2022-08-05T08:25:59.863Z,24.60
2022-08-05T08:28:59.563Z,24.80
2022-08-05T08:31:49.899Z,24.90
2022-08-05T08:34:37.147Z,24.90
2022-08-05T08:37:27.982Z,24.90
2022-08-05T08:40:16.953Z,24.80
2022-08-05T08:43:21.034Z,24.70
2022-08-05T08:46:15.649Z,24.70
2022-08-05T08:50:05.747Z,24.60
2022-08-05T08:52:14.521Z,24.60
2022-08-05T08:55:03.389Z,24.50
2022-08-05T08:58:02.506Z,24.50
2022-08-05T09:00:51.518Z,24.30
2022-08-05T09:03:45.496Z,24.10
2022-08-05T09:06:32.957Z,24.00
2022-08-05T09:09:23.773Z,23.80
2022-08-05T09:12:20.652Z,23.90
2022-08-05T09:15:16.253Z,23.90
2022-08-05T09:18:03.492Z,24.00
2022-08-05T09:20:51.299Z,24.00
2022-08-05T09:23:43.824Z,24.10
2022-08-05T09:26:32.402Z,24.10
2022-08-05T09:29:20.830Z,24.10
2022-08-05T09:32:41.143Z,24.10
2022-08-05T09:35:27.780Z,24.30
2022-08-05T09:38:27.368Z,24.50
2022-08-05T09:41:16.771Z,24.50
2022-08-05T09:44:04.614Z,24.50
2022-08-05T09:47:10.400Z,24.50
2022-08-05T09:50:03.370Z,24.60
2022-08-05T09:52:58.781Z,24.60
2022-08-05T09:55:56.795Z,24.60
2022-08-05T09:58:58.344Z,24.60
2022-08-05T10:01:47.304Z,24.50
2022-08-05T10:04:38.572Z,24.50
2022-08-05T10:08:35.081Z,24.30
2022-08-05T10:10:54.527Z,24.30
2022-08-05T10:13:47.413Z,24.20
2022-08-05T10:16:38.018Z,24.10
2022-08-05T10:20:03.181Z,24.30
2022-08-05T10:22:50.878Z,24.20
2022-08-05T10:25:38.693Z,24.10
2022-08-05T10:28:29.452Z,24.30
2022-08-05T10:32:50.555Z,24.40
2022-08-05T10:34:30.031Z,24.70
2022-08-05T10:37:19.357Z,24.50
2022-08-05T10:40:19.854Z,24.80
2022-08-05T10:43:17.937Z,24.60
2022-08-05T10:46:12.273Z,24.30
2022-08-05T10:49:03.925Z,23.80
2022-08-05T10:52:00.168Z,23.60
2022-08-05T10:54:56.952Z,23.60
2022-08-05T10:57:46.382Z,23.70
2022-08-05T11:00:42.026Z,23.90
2022-08-05T11:03:29.815Z,24.00
2022-08-05T11:06:18.045Z,24.00
2022-08-05T11:09:39.051Z,23.70
2022-08-05T11:12:50.882Z,23.50
2022-08-05T11:15:59.378Z,23.50
2022-08-05T11:18:48.693Z,23.90
2022-08-05T11:21:49.001Z,24.40
2022-08-05T11:24:36.943Z,24.80
2022-08-05T11:27:50.148Z,25.00
2022-08-05T11:31:12.961Z,25.50
2022-08-05T11:34:51.637Z,25.90
2022-08-05T11:38:29.052Z,25.70
2022-08-05T11:41:54.540Z,25.50
2022-08-05T11:44:52.810Z,25.70
2022-08-05T11:47:49.283Z,25.50
2022-08-05T11:50:41.867Z,25.80
2022-08-05T11:53:30.114Z,25.50
2022-08-05T11:56:40.591Z,25.40
2022-08-05T11:59:33.572Z,25.70
2022-08-05T12:02:40.195Z,25.80
2022-08-05T12:05:32.291Z,26.00
2022-08-05T12:08:28.331Z,26.20
2022-08-05T12:11:22.365Z,26.40
2022-08-05T12:14:10.575Z,26.10
2022-08-05T12:16:57.966Z,26.20
2022-08-05T12:20:27.312Z,26.30
2022-08-05T12:23:09.297Z,26.60
2022-08-05T12:26:02.159Z,26.70
2022-08-05T12:28:49.863Z,26.60
2022-08-05T12:31:46.031Z,26.60
2022-08-05T12:34:38.748Z,26.80
2022-08-05T12:37:29.954Z,26.70
2022-08-05T12:40:26.290Z,26.80
2022-08-05T12:43:20.552Z,27.30
2022-08-05T12:46:08.022Z,27.60
2022-08-05T12:49:13.528Z,27.70
2022-08-05T12:52:12.356Z,27.60
2022-08-05T12:55:18.086Z,27.40
2022-08-05T12:58:50.508Z,27.50
2022-08-05T13:02:04.165Z,27.40
2022-08-05T13:04:54.471Z,27.40
2022-08-05T13:07:59.857Z,27.70
2022-08-05T13:10:50.341Z,28.00
2022-08-05T13:14:05.053Z,27.90
2022-08-05T13:16:56.627Z,28.10
2022-08-05T13:19:59.429Z,28.50
2022-08-05T13:22:49.185Z,28.40
2022-08-05T13:25:51.946Z,28.10
2022-08-05T13:28:44.342Z,28.30
2022-08-05T13:31:33.772Z,28.40
2022-08-05T13:34:40.895Z,28.10
2022-08-05T13:37:34.805Z,27.90
2022-08-05T13:40:36.634Z,27.80
2022-08-05T13:43:43.446Z,27.70
2022-08-05T13:46:50.655Z,27.80
2022-08-05T13:49:45.304Z,28.00
2022-08-05T13:52:35.425Z,28.00
2022-08-05T13:55:40.695Z,27.60
2022-08-05T13:58:30.732Z,27.50
2022-08-05T14:01:18.639Z,27.80
2022-08-05T14:04:26.526Z,27.60
2022-08-05T14:07:26.084Z,27.80
2022-08-05T14:10:28.553Z,27.90
2022-08-05T14:13:17.769Z,27.50
2022-08-05T14:16:11.724Z,27.80
2022-08-05T14:19:04.787Z,27.70
2022-08-05T14:22:09.635Z,27.80
2022-08-05T14:25:00.461Z,27.90
2022-08-05T14:27:48.465Z,28.00
2022-08-05T14:30:35.499Z,28.00
2022-08-05T14:33:24.055Z,27.70
2022-08-05T14:36:11.288Z,27.70
2022-08-05T14:38:58.401Z,27.40
2022-08-05T14:42:15.977Z,27.00
2022-08-05T14:44:59.531Z,27.00
2022-08-05T14:48:03.103Z,27.10
2022-08-05T14:50:53.187Z,27.10
2022-08-05T14:53:44.650Z,27.30
2022-08-05T14:56:32.130Z,27.40
2022-08-05T14:59:21.733Z,27.40
2022-08-05T15:02:14.717Z,27.40
2022-08-05T15:05:13.222Z,27.10
2022-08-05T15:08:10.705Z,26.80
2022-08-05T15:11:07.705Z,26.60
2022-08-05T15:13:54.935Z,26.40
2022-08-05T15:16:43.721Z,26.50
2022-08-05T15:19:34.187Z,26.30
2022-08-05T15:22:21.549Z,26.20
2022-08-05T15:25:14.723Z,26.20
2022-08-05T15:28:02.961Z,26.10
2022-08-05T15:30:51.543Z,26.00
2022-08-05T15:34:04.881Z,25.80
2022-08-05T15:36:50.024Z,25.80
2022-08-05T15:41:04.037Z,25.60
2022-08-05T15:42:55.300Z,25.50
2022-08-05T15:45:45.686Z,25.40
2022-08-05T15:48:33.377Z,25.40
2022-08-05T15:52:03.723Z,25.20
2022-08-05T15:54:37.475Z,25.20
2022-08-05T15:57:25.434Z,25.20
2022-08-05T16:00:25.953Z,25.30
2022-08-05T16:03:19.959Z,25.20
2022-08-05T16:06:09.044Z,25.10
2022-08-05T16:09:00.108Z,24.90
2022-08-05T16:11:52.447Z,24.80
2022-08-05T16:14:41.408Z,24.70
2022-08-05T16:17:29.013Z,24.50
2022-08-05T16:20:16.329Z,24.50
2022-08-05T16:23:08.511Z,24.50
2022-08-05T16:26:08.997Z,24.40
2022-08-05T16:28:56.714Z,24.40
2022-08-05T16:31:57.295Z,24.40
2022-08-05T16:34:45.070Z,24.30
2022-08-05T16:38:15.000Z,24.20
2022-08-05T16:40:51.858Z,24.30
2022-08-05T16:48:11.455Z,24.20
2022-08-05T16:51:12.869Z,23.90
2022-08-05T16:54:04.019Z,23.80
2022-08-05T16:56:56.101Z,23.70
2022-08-05T17:00:01.417Z,23.70
2022-08-05T17:03:42.631Z,23.60
2022-08-05T17:06:30.407Z,23.70
2022-08-05T17:09:17.738Z,23.60
2022-08-05T17:12:05.835Z,23.50
2022-08-05T17:14:54.754Z,23.20
2022-08-05T17:22:55.632Z,22.70
2022-08-05T17:25:43.367Z,22.40
2022-08-05T17:28:55.521Z,22.30
2022-08-05T17:31:59.013Z,22.00
2022-08-05T17:34:41.034Z,21.80
2022-08-05T17:37:41.635Z,21.50
2022-08-05T17:40:33.974Z,21.20
2022-08-05T17:43:47.265Z,21.20
2022-08-05T17:46:30.425Z,21.20
2022-08-05T17:49:51.547Z,21.00
2022-08-05T17:52:53.012Z,20.80
2022-08-05T17:55:44.017Z,20.70
2022-08-05T18:04:04.051Z,20.50
2022-08-05T18:07:42.332Z,20.40
2022-08-05T18:10:29.733Z,20.10
2022-08-05T18:13:21.806Z,20.20
2022-08-05T18:16:14.253Z,20.20
2022-08-05T18:19:07.590Z,20.10
2022-08-05T18:22:09.800Z,20.00
2022-08-05T18:25:23.657Z,19.90
2022-08-05T18:28:12.500Z,19.80
2022-08-05T18:31:06.095Z,19.90
2022-08-05T18:33:56.654Z,19.70
2022-08-05T18:36:44.931Z,19.80
2022-08-05T18:40:31.794Z,19.90
2022-08-05T18:42:40.721Z,19.80
2022-08-05T18:45:41.433Z,19.80
2022-08-05T18:48:33.170Z,19.70
2022-08-05T18:52:06.916Z,19.70
2022-08-05T18:54:46.959Z,19.70
2022-08-05T19:02:26.766Z,19.40
2022-08-05T19:06:13.218Z,19.30
2022-08-05T19:08:30.836Z,19.20
2022-08-05T19:11:28.037Z,19.30
2022-08-05T19:14:44.622Z,19.20
2022-08-05T19:17:25.937Z,19.10
2022-08-05T19:20:22.421Z,19.00
2022-08-05T19:24:03.291Z,19.00
2022-08-05T19:26:17.857Z,19.00
2022-08-05T19:29:07.156Z,19.10
2022-08-05T19:42:35.855Z,19.00
2022-08-05T19:45:23.374Z,18.90
2022-08-05T19:54:04.866Z,18.80
2022-08-05T19:56:38.398Z,18.80
2022-08-05T19:59:54.992Z,18.80
2022-08-05T20:02:35.952Z,18.70
2022-08-05T20:05:24.377Z,18.70
2022-08-05T20:08:12.344Z,18.70
2022-08-05T20:11:01.928Z,18.70
2022-08-05T20:13:58.335Z,18.60
2022-08-05T20:16:59.149Z,18.60
2022-08-05T20:19:48.702Z,18.40
2022-08-05T20:22:37.004Z,18.40
2022-08-05T20:25:33.825Z,18.40
2022-08-05T20:28:27.035Z,18.40
2022-08-05T20:31:14.371Z,18.30
2022-08-05T20:34:05.108Z,18.30
2022-08-05T20:42:11.605Z,18.30
2022-08-05T20:44:59.117Z,18.30
2022-08-05T20:47:48.066Z,18.30
2022-08-05T20:50:45.266Z,18.30
2022-08-05T20:53:36.450Z,18.40
2022-08-05T20:57:14.990Z,18.40
2022-08-05T21:00:40.172Z,18.40
2022-08-05T21:03:24.798Z,18.20
2022-08-05T21:06:27.553Z,18.20
2022-08-05T21:09:15.906Z,18.20
2022-08-05T21:12:08.867Z,18.20
2022-08-05T21:14:58.133Z,18.10
2022-08-05T21:17:46.231Z,18.10
2022-08-05T21:20:34.838Z,18.10
2022-08-05T21:23:23.818Z,18.10
2022-08-05T21:27:02.251Z,18.20
2022-08-05T21:29:50.995Z,18.20
2022-08-05T21:32:37.931Z,18.10
2022-08-05T21:35:30.085Z,18.20
2022-08-05T21:38:32.703Z,18.20
2022-08-05T21:50:38.391Z,18.10
2022-08-05T21:53:27.551Z,18.00
2022-08-05T21:56:17.261Z,18.00
2022-08-05T22:00:06.168Z,17.90
2022-08-05T22:08:22.168Z,17.80
2022-08-05T22:11:10.202Z,17.80
2022-08-05T22:14:05.696Z,17.90
2022-08-05T22:17:07.327Z,17.60
2022-08-05T22:20:02.075Z,17.70
2022-08-05T22:23:16.918Z,17.70
2022-08-05T22:26:21.617Z,17.70
2022-08-05T22:29:09.993Z,17.70
2022-08-05T22:31:59.585Z,17.60
2022-08-05T22:40:10.037Z,17.60
2022-08-05T22:43:03.902Z,17.50
2022-08-05T22:45:53.614Z,17.50
2022-08-05T22:48:42.100Z,17.60
2022-08-05T22:56:44.083Z,17.50
2022-08-05T22:59:43.767Z,17.40
2022-08-05T23:02:34.419Z,17.50
2022-08-05T23:05:27.583Z,17.50
2022-08-05T23:13:31.339Z,17.30
2022-08-05T23:16:44.156Z,17.20
2022-08-05T23:19:32.556Z,17.20
2022-08-05T23:22:27.871Z,17.10
2022-08-05T23:25:17.003Z,17.10
2022-08-05T23:28:22.080Z,17.00
2022-08-05T23:31:15.982Z,16.90
2022-08-05T23:34:06.781Z,16.90
2022-08-05T23:36:55.425Z,16.80
2022-08-05T23:39:53.837Z,16.80
2022-08-05T23:42:47.387Z,16.70
2022-08-05T23:45:40.881Z,16.70
2022-08-05T23:48:28.182Z,16.60
2022-08-05T23:51:15.942Z,16.50
2022-08-05T23:54:04.549Z,16.50
2022-08-05T23:56:51.854Z,16.40
